createdAt,value
2017-12-04T00:00:55.250Z,85.8
2017-12-04T00:10:55.238Z,72.6
2017-12-04T00:20:55.157Z,71.5
2017-12-04T00:30:56.060Z,67.2
2017-12-04T00:40:55.792Z,61.1
2017-12-04T00:50:55.688Z,53.8
2017-12-04T01:00:55.388Z,46.8
2017-12-04T01:10:55.221Z,33.6
2017-12-04T01:20:55.459Z,31.1
2017-12-04T01:30:55.160Z,26.6
2017-12-04T01:40:56.836Z,26.0
2017-12-04T01:50:55.531Z,24.5
2017-12-04T02:00:55.228Z,21.1
2017-12-04T02:10:56.215Z,22.8
2017-12-04T02:20:55.203Z,19.0
2017-12-04T02:30:55.915Z,19.5
2017-12-04T02:40:55.888Z,17.4
2017-12-04T02:50:55.571Z,17.3
2017-12-04T03:00:55.251Z,12.5
2017-12-04T03:10:55.107Z,11.8
2017-12-04T03:20:55.170Z,9.8
2017-12-04T03:30:55.943Z,10.9
2017-12-04T03:40:55.980Z,11.7
2017-12-04T03:50:56.335Z,12.8
2017-12-04T04:00:54.976Z,13.7
2017-12-04T04:10:55.938Z,14.5
2017-12-04T04:20:55.960Z,15.4
2017-12-04T04:30:55.670Z,14.3
2017-12-04T04:40:55.549Z,14.6
2017-12-04T04:50:55.374Z,12.1
2017-12-04T05:00:55.399Z,14.8
2017-12-04T05:10:55.434Z,15.2
2017-12-04T05:20:55.262Z,13.9
2017-12-04T05:30:55.482Z,12.8
2017-12-04T05:40:55.516Z,15.1
2017-12-04T05:50:55.218Z,14.6
2017-12-04T06:00:56.047Z,17.7
2017-12-04T06:10:55.760Z,19.1
2017-12-04T06:20:55.582Z,19.0
2017-12-04T06:30:55.557Z,18.1
2017-12-04T06:40:55.576Z,19.8
2017-12-04T06:50:55.659Z,21.5
2017-12-04T07:00:55.930Z,19.3
2017-12-04T07:10:55.525Z,17.9
2017-12-04T07:20:55.712Z,17.2
2017-12-04T07:30:57.055Z,14.9
2017-12-04T07:40:55.760Z,18.7
2017-12-04T07:50:55.432Z,17.6
2017-12-04T08:00:55.325Z,16.9
2017-12-04T08:10:55.036Z,17.8
2017-12-04T08:20:56.171Z,15.4
2017-12-04T08:30:56.027Z,18.7
2017-12-04T08:40:56.190Z,19.9
2017-12-04T08:50:56.295Z,21.4
2017-12-04T09:00:55.457Z,19.0
2017-12-04T09:10:55.883Z,21.5
2017-12-04T09:20:55.705Z,20.5
2017-12-04T09:30:55.387Z,22.2
2017-12-04T09:40:55.423Z,19.3
2017-12-04T09:50:55.274Z,21.7
2017-12-04T10:00:55.428Z,23.3
2017-12-04T10:10:55.090Z,22.1
2017-12-04T10:20:55.206Z,22.2
2017-12-04T10:30:56.140Z,21.3
2017-12-04T10:40:55.957Z,20.4
2017-12-04T10:50:55.815Z,21.7
2017-12-04T11:00:55.792Z,21.6
2017-12-04T11:10:55.902Z,22.3
2017-12-04T11:20:55.712Z,20.1
2017-12-04T11:30:56.206Z,21.6
2017-12-04T11:40:56.097Z,21.9
2017-12-04T11:50:55.915Z,21.6
2017-12-04T12:00:55.562Z,21.8
2017-12-04T12:10:55.442Z,20.0
2017-12-04T12:20:55.251Z,20.7
2017-12-04T12:30:54.944Z,22.4
2017-12-04T12:40:55.593Z,20.8
2017-12-04T12:50:55.239Z,20.1
2017-12-04T13:00:55.304Z,22.0
2017-12-04T13:10:54.996Z,20.2
2017-12-04T13:20:56.006Z,20.1
2017-12-04T13:30:55.971Z,21.4
2017-12-04T13:40:55.858Z,20.3
2017-12-04T13:50:55.889Z,19.7
2017-12-04T14:00:55.588Z,17.7
2017-12-04T14:10:55.534Z,21.8
2017-12-04T14:20:55.623Z,24.4
2017-12-04T14:30:55.466Z,24.0
2017-12-04T14:40:55.515Z,25.5
2017-12-04T14:50:55.197Z,23.3
2017-12-04T15:00:55.881Z,24.2
2017-12-04T15:10:55.800Z,25.8
2017-12-04T15:20:55.651Z,26.3
2017-12-04T15:30:55.655Z,26.4
2017-12-04T15:40:55.372Z,25.7
2017-12-04T15:50:54.921Z,29.2
2017-12-04T16:00:56.040Z,30.8
2017-12-04T16:10:55.936Z,31.4
2017-12-04T16:20:56.421Z,31.0
2017-12-04T16:30:55.362Z,29.5
2017-12-04T16:40:55.073Z,32.0
2017-12-04T16:50:56.031Z,32.7
2017-12-04T17:00:55.917Z,33.9
2017-12-04T17:10:56.027Z,38.9
2017-12-04T17:20:55.902Z,36.9
2017-12-04T17:30:56.041Z,37.7
2017-12-04T17:40:55.759Z,41.5
2017-12-04T17:50:56.005Z,36.1
2017-12-04T18:00:56.250Z,37.6
2017-12-04T18:10:54.936Z,38.6
2017-12-04T18:20:56.050Z,35.9
2017-12-04T18:30:55.977Z,35.3
2017-12-04T18:40:55.827Z,34.1
2017-12-04T18:50:55.787Z,32.7
2017-12-04T19:00:56.537Z,35.0
2017-12-04T19:10:55.505Z,33.3
2017-12-04T19:20:55.810Z,32.7
2017-12-04T19:30:55.563Z,28.2
2017-12-04T19:40:55.296Z,27.5
2017-12-04T19:50:55.403Z,27.0
2017-12-04T20:00:55.158Z,26.7
2017-12-04T20:10:56.033Z,28.8
2017-12-04T20:20:55.879Z,28.4
2017-12-04T20:30:56.111Z,33.1
2017-12-04T20:40:56.100Z,33.1
2017-12-04T20:50:56.041Z,34.8
2017-12-04T21:00:56.112Z,34.8
2017-12-04T21:10:56.376Z,32.9
2017-12-04T21:20:55.436Z,33.3
2017-12-04T21:30:55.482Z,34.8
2017-12-04T21:40:55.226Z,33.6
2017-12-04T21:50:56.322Z,32.5
2017-12-04T22:00:55.322Z,35.1
2017-12-04T22:10:55.282Z,31.6
2017-12-04T22:20:55.087Z,31.5
2017-12-04T22:30:56.035Z,29.8
2017-12-04T22:40:55.933Z,29.3
2017-12-04T22:50:55.614Z,26.8
2017-12-04T23:00:55.480Z,26.8
2017-12-04T23:10:55.645Z,26.0
2017-12-04T23:20:55.524Z,22.6
2017-12-04T23:30:55.268Z,22.5
2017-12-04T23:40:55.308Z,21.5
2017-12-04T23:50:55.032Z,18.8
